createdAt,value
2019-04-21T00:01:42.971Z,10.20
2019-04-21T00:04:40.798Z,10.20
2019-04-21T00:07:33.145Z,10.10
2019-04-21T00:10:23.039Z,10.10
2019-04-21T00:13:03.674Z,10.20
2019-04-21T00:15:40.739Z,10.20
2019-04-21T00:18:21.690Z,10.20
2019-04-21T00:21:14.812Z,10.20
2019-04-21T00:24:16.487Z,10.20
2019-04-21T00:27:06.960Z,10.10
2019-04-21T00:29:51.893Z,10.10
2019-04-21T00:32:35.488Z,10.10
2019-04-21T00:35:16.952Z,10.10
2019-04-21T00:38:22.757Z,10.10
2019-04-21T00:41:08.777Z,10.10
2019-04-21T00:43:44.746Z,10.00
2019-04-21T00:46:35.157Z,9.90
2019-04-21T00:49:23.253Z,9.90
2019-04-21T00:52:35.327Z,9.90
2019-04-21T00:55:22.581Z,9.90
2019-04-21T01:00:46.196Z,9.60
2019-04-21T01:03:32.340Z,9.40
2019-04-21T01:06:23.052Z,9.30
2019-04-21T01:09:06.338Z,9.40
2019-04-21T01:11:49.300Z,9.40
2019-04-21T01:14:40.712Z,9.40
2019-04-21T01:17:27.726Z,9.40
2019-04-21T01:20:07.920Z,9.20
2019-04-21T01:22:38.777Z,9.10
2019-04-21T01:25:34.476Z,8.90
2019-04-21T01:28:29.295Z,9.00
2019-04-21T01:31:17.392Z,8.90
2019-04-21T01:34:10.123Z,9.00
2019-04-21T01:36:52.929Z,9.00
2019-04-21T01:39:42.806Z,9.10
2019-04-21T01:42:25.616Z,9.00
2019-04-21T01:45:12.742Z,9.00
2019-04-21T01:47:59.398Z,9.00
2019-04-21T01:50:47.234Z,9.00
2019-04-21T01:53:42.226Z,9.00
2019-04-21T01:56:30.594Z,9.00
2019-04-21T01:59:03.478Z,8.90
2019-04-21T02:02:08.073Z,8.60
2019-04-21T02:04:57.581Z,8.50
2019-04-21T02:07:40.665Z,8.50
2019-04-21T02:10:36.560Z,8.60
2019-04-21T02:13:12.093Z,8.60
2019-04-21T02:18:52.949Z,8.70
2019-04-21T02:21:27.281Z,8.60
2019-04-21T02:24:31.644Z,8.60
2019-04-21T02:27:15.643Z,8.60
2019-04-21T02:30:04.556Z,8.50
2019-04-21T02:36:00.557Z,8.20
2019-04-21T02:38:36.306Z,8.10
2019-04-21T02:41:18.357Z,8.00
2019-04-21T02:46:54.769Z,8.00
2019-04-21T02:50:00.249Z,8.20
2019-04-21T02:52:31.641Z,8.20
2019-04-21T02:58:06.193Z,8.30
2019-04-21T03:01:14.414Z,8.30
2019-04-21T03:07:07.059Z,8.30
2019-04-21T03:12:28.956Z,8.00
2019-04-21T03:15:21.325Z,8.00
2019-04-21T03:18:08.388Z,7.90
2019-04-21T03:21:07.188Z,8.00
2019-04-21T03:23:56.237Z,8.00
2019-04-21T03:29:26.472Z,7.90
2019-04-21T03:35:19.406Z,7.80
2019-04-21T03:37:53.019Z,7.70
2019-04-21T03:40:18.747Z,7.60
2019-04-21T03:45:49.134Z,7.50
2019-04-21T03:48:47.169Z,7.50
2019-04-21T03:51:27.651Z,7.40
2019-04-21T03:54:22.289Z,7.40
2019-04-21T03:59:56.235Z,7.30
2019-04-21T04:03:10.754Z,7.30
2019-04-21T04:06:13.741Z,7.30
2019-04-21T04:17:11.702Z,7.20
2019-04-21T04:25:43.025Z,7.20
2019-04-21T04:28:18.796Z,7.10
2019-04-21T04:31:09.959Z,7.00
2019-04-21T04:33:58.156Z,7.00
2019-04-21T04:39:43.078Z,7.10
2019-04-21T04:42:26.712Z,7.10
2019-04-21T04:45:28.283Z,7.10
2019-04-21T04:47:51.287Z,7.10
2019-04-21T04:56:12.805Z,7.40
2019-04-21T05:01:57.559Z,7.40
2019-04-21T05:04:37.455Z,7.40
2019-04-21T05:10:03.957Z,7.60
2019-04-21T05:12:51.267Z,7.60
2019-04-21T05:15:37.867Z,7.70
2019-04-21T05:18:35.168Z,7.80
2019-04-21T05:21:25.021Z,8.00
2019-04-21T05:23:54.022Z,8.00
2019-04-21T05:26:39.020Z,8.00
2019-04-21T05:29:24.552Z,8.20
2019-04-21T05:32:26.492Z,8.30
2019-04-21T05:35:14.371Z,8.50
2019-04-21T05:38:00.095Z,8.60
2019-04-21T05:40:43.753Z,8.60
2019-04-21T05:43:39.112Z,8.70
2019-04-21T05:46:32.587Z,8.80
2019-04-21T05:49:33.751Z,8.90
2019-04-21T05:52:19.651Z,9.00
2019-04-21T05:55:10.990Z,9.20
2019-04-21T05:57:59.666Z,9.40
2019-04-21T06:01:06.451Z,9.50
2019-04-21T06:03:44.787Z,9.70
2019-04-21T06:06:34.094Z,9.80
2019-04-21T06:09:14.574Z,9.90
2019-04-21T06:12:03.424Z,10.10
2019-04-21T06:20:31.821Z,10.60
2019-04-21T06:23:13.550Z,10.70
2019-04-21T06:28:50.410Z,11.10
2019-04-21T06:34:29.672Z,11.50
2019-04-21T06:37:32.137Z,11.70
2019-04-21T06:40:07.642Z,11.90
2019-04-21T06:42:51.378Z,12.10
2019-04-21T06:45:36.532Z,12.30
2019-04-21T06:48:25.883Z,12.50
2019-04-21T06:51:12.574Z,12.70
2019-04-21T06:53:59.250Z,13.00
2019-04-21T06:56:46.461Z,13.20
2019-04-21T06:59:30.077Z,13.40
2019-04-21T07:02:33.364Z,13.60
2019-04-21T07:08:05.192Z,14.10
2019-04-21T07:10:31.956Z,14.20
2019-04-21T07:13:22.337Z,14.40
2019-04-21T07:16:12.208Z,14.60
2019-04-21T07:19:06.535Z,14.80
2019-04-21T07:21:45.478Z,15.00
2019-04-21T07:24:33.360Z,15.20
2019-04-21T07:27:26.986Z,15.50
2019-04-21T07:30:05.255Z,15.70
2019-04-21T07:32:56.544Z,15.90
2019-04-21T07:35:37.476Z,16.10
2019-04-21T07:38:27.453Z,16.30
2019-04-21T07:41:02.608Z,16.50
2019-04-21T07:43:55.365Z,16.70
2019-04-21T07:46:44.075Z,16.80
2019-04-21T07:49:39.958Z,17.00
2019-04-21T07:52:28.575Z,17.20
2019-04-21T07:58:02.606Z,17.50
2019-04-21T08:00:52.975Z,17.70
2019-04-21T08:03:33.659Z,17.80
2019-04-21T08:06:28.252Z,17.90
2019-04-21T08:09:09.108Z,18.00
2019-04-21T08:11:51.759Z,18.20
2019-04-21T08:14:48.255Z,18.30
2019-04-21T08:17:30.690Z,18.40
2019-04-21T08:20:20.574Z,18.50
2019-04-21T08:23:04.723Z,18.60
2019-04-21T08:25:58.938Z,18.70
2019-04-21T08:28:40.618Z,18.80
2019-04-21T08:31:32.381Z,18.90
2019-04-21T08:34:14.099Z,18.90
2019-04-21T08:36:57.525Z,19.10
2019-04-21T08:39:59.374Z,19.20
2019-04-21T08:42:30.517Z,19.30
2019-04-21T08:45:22.591Z,19.50
2019-04-21T08:48:12.082Z,19.60
2019-04-21T08:51:06.004Z,19.70
2019-04-21T08:53:50.633Z,19.80
2019-04-21T08:56:46.760Z,19.90
2019-04-21T08:59:43.493Z,20.00
2019-04-21T09:02:35.106Z,20.10
2019-04-21T09:05:17.759Z,20.20
2019-04-21T09:08:05.331Z,20.40
2019-04-21T09:10:52.874Z,20.50
2019-04-21T09:13:37.129Z,20.60
2019-04-21T09:16:20.825Z,20.80
2019-04-21T09:19:11.452Z,20.90
2019-04-21T09:22:00.478Z,21.00
2019-04-21T09:24:45.717Z,21.10
2019-04-21T09:27:33.627Z,21.20
2019-04-21T09:30:06.550Z,21.40
2019-04-21T09:32:54.511Z,21.50
2019-04-21T09:35:40.591Z,21.60
2019-04-21T09:38:33.942Z,21.70
2019-04-21T09:41:17.531Z,21.70
2019-04-21T09:44:01.636Z,21.80
2019-04-21T09:46:50.779Z,21.70
2019-04-21T09:49:37.193Z,21.80
2019-04-21T09:52:27.027Z,21.90
2019-04-21T09:55:14.290Z,22.00
2019-04-21T09:58:07.490Z,22.00
2019-04-21T10:00:56.842Z,22.10
2019-04-21T10:03:38.286Z,22.10
2019-04-21T10:06:19.575Z,22.10
2019-04-21T10:09:10.249Z,22.10
2019-04-21T10:11:54.914Z,22.30
2019-04-21T10:14:40.959Z,22.30
2019-04-21T10:17:41.676Z,22.40
2019-04-21T10:20:26.986Z,22.50
2019-04-21T10:23:13.418Z,22.50
2019-04-21T10:26:00.869Z,22.50
2019-04-21T10:28:46.887Z,22.60
2019-04-21T10:31:32.475Z,22.60
2019-04-21T10:34:19.041Z,22.60
2019-04-21T10:37:04.938Z,22.50
2019-04-21T10:39:51.458Z,22.40
2019-04-21T10:42:37.342Z,22.50
2019-04-21T10:45:23.067Z,22.50
2019-04-21T10:48:08.406Z,22.60
2019-04-21T10:50:54.810Z,22.70
2019-04-21T10:53:42.774Z,22.60
2019-04-21T10:56:33.209Z,22.60
2019-04-21T10:59:16.152Z,22.60
2019-04-21T11:02:03.558Z,22.50
2019-04-21T11:04:49.026Z,22.40
2019-04-21T11:07:57.601Z,22.50
2019-04-21T11:10:32.083Z,22.50
2019-04-21T11:13:18.761Z,22.50
2019-04-21T11:16:05.392Z,22.40
2019-04-21T11:18:51.639Z,22.30
2019-04-21T11:21:36.755Z,22.40
2019-04-21T11:24:23.038Z,22.40
2019-04-21T11:27:08.866Z,22.40
2019-04-21T11:29:53.915Z,22.40
2019-04-21T11:32:48.229Z,22.50
2019-04-21T11:35:35.213Z,22.50
2019-04-21T11:38:30.441Z,22.60
2019-04-21T11:41:16.053Z,22.60
2019-04-21T11:44:01.437Z,22.70
2019-04-21T11:46:46.795Z,22.60
2019-04-21T11:49:32.595Z,22.50
2019-04-21T11:52:20.789Z,22.50
2019-04-21T11:55:07.302Z,22.50
2019-04-21T11:57:53.493Z,22.70
2019-04-21T12:00:39.922Z,22.80
2019-04-21T12:03:25.678Z,22.90
2019-04-21T12:06:11.174Z,23.00
2019-04-21T12:08:59.079Z,23.20
2019-04-21T12:11:43.373Z,23.30
2019-04-21T12:14:28.263Z,23.40
2019-04-21T12:17:14.228Z,23.40
2019-04-21T12:20:01.046Z,23.40
2019-04-21T12:22:47.328Z,23.60
2019-04-21T12:25:34.361Z,23.70
2019-04-21T12:28:19.778Z,23.80
2019-04-21T12:31:07.907Z,23.80
2019-04-21T12:33:58.184Z,23.80
2019-04-21T12:36:44.662Z,23.90
2019-04-21T12:39:30.517Z,24.00
2019-04-21T12:42:16.475Z,24.10
2019-04-21T12:45:03.471Z,24.20
2019-04-21T12:47:50.661Z,24.20
2019-04-21T12:50:37.641Z,24.40
2019-04-21T12:53:23.544Z,24.40
2019-04-21T12:56:09.480Z,24.50
2019-04-21T12:58:55.363Z,24.70
2019-04-21T13:01:41.164Z,24.80
2019-04-21T13:04:26.307Z,25.10
2019-04-21T13:07:13.160Z,25.50
2019-04-21T13:10:00.099Z,26.10
2019-04-21T13:12:45.891Z,27.10
2019-04-21T13:15:31.594Z,28.40
2019-04-21T13:18:16.690Z,29.90
2019-04-21T13:21:02.706Z,31.60
2019-04-21T13:23:49.176Z,33.30
2019-04-21T13:26:43.085Z,35.00
2019-04-21T13:29:23.852Z,36.00
2019-04-21T13:32:10.578Z,36.60
2019-04-21T13:34:57.052Z,36.90
2019-04-21T13:37:43.658Z,37.40
2019-04-21T13:40:54.437Z,37.90
2019-04-21T13:43:25.217Z,37.20
2019-04-21T13:46:11.978Z,36.10
2019-04-21T13:48:57.334Z,35.30
2019-04-21T13:51:43.831Z,34.90
2019-04-21T13:54:29.669Z,34.60
2019-04-21T13:57:16.548Z,33.70
2019-04-21T14:00:06.313Z,33.10
2019-04-21T14:02:52.526Z,32.50
2019-04-21T14:05:38.211Z,31.30
2019-04-21T14:08:25.158Z,30.60
2019-04-21T14:11:11.367Z,29.70
2019-04-21T14:13:56.840Z,29.60
2019-04-21T14:16:42.353Z,29.50
2019-04-21T14:19:27.798Z,29.30
2019-04-21T14:22:15.906Z,29.20
2019-04-21T14:25:01.795Z,28.90
2019-04-21T14:27:49.044Z,28.80
2019-04-21T14:30:34.632Z,28.70
2019-04-21T14:33:23.432Z,28.40
2019-04-21T14:36:08.632Z,27.90
2019-04-21T14:38:54.498Z,27.80
2019-04-21T14:41:40.294Z,27.80
2019-04-21T14:44:27.108Z,27.80
2019-04-21T14:47:20.865Z,28.00
2019-04-21T14:50:28.176Z,28.10
2019-04-21T14:53:16.058Z,28.80
2019-04-21T14:56:01.458Z,29.20
2019-04-21T14:58:46.871Z,28.90
2019-04-21T15:01:33.736Z,28.60
2019-04-21T15:04:20.584Z,28.70
2019-04-21T15:07:05.849Z,28.50
2019-04-21T15:10:02.550Z,28.20
2019-04-21T15:12:39.360Z,28.10
2019-04-21T15:15:25.918Z,28.30
2019-04-21T15:18:10.852Z,28.10
2019-04-21T15:20:57.366Z,28.20
2019-04-21T15:23:42.637Z,27.80
2019-04-21T15:26:28.433Z,28.10
2019-04-21T15:29:14.995Z,28.20
2019-04-21T15:32:00.926Z,27.60
2019-04-21T15:34:46.261Z,27.90
2019-04-21T15:37:31.624Z,29.20
2019-04-21T15:40:27.245Z,30.20
2019-04-21T15:43:04.403Z,30.80
2019-04-21T15:45:50.493Z,30.70
2019-04-21T15:48:37.040Z,30.90
2019-04-21T15:51:22.313Z,30.80
2019-04-21T15:54:08.736Z,30.70
2019-04-21T15:57:11.174Z,30.40
2019-04-21T15:59:58.741Z,30.10
2019-04-21T16:02:46.737Z,29.60
2019-04-21T16:05:32.966Z,29.70
2019-04-21T16:08:18.681Z,30.10
2019-04-21T16:11:07.461Z,30.50
2019-04-21T16:13:52.014Z,30.60
2019-04-21T16:16:37.250Z,31.10
2019-04-21T16:19:23.044Z,31.20
2019-04-21T16:22:08.615Z,31.40
2019-04-21T16:24:54.691Z,31.10
2019-04-21T16:27:39.694Z,31.10
2019-04-21T16:30:25.879Z,31.40
2019-04-21T16:33:12.193Z,31.70
2019-04-21T16:35:58.007Z,32.30
2019-04-21T16:38:43.794Z,32.40
2019-04-21T16:41:30.354Z,32.80
2019-04-21T16:44:16.841Z,32.20
2019-04-21T16:47:03.372Z,31.50
2019-04-21T16:49:49.738Z,31.30
2019-04-21T16:52:38.328Z,30.90
2019-04-21T16:55:26.710Z,30.00
2019-04-21T16:58:28.724Z,28.70
2019-04-21T17:01:17.011Z,27.70
2019-04-21T17:04:04.490Z,26.80
2019-04-21T17:06:51.180Z,26.20
2019-04-21T17:09:36.858Z,25.40
2019-04-21T17:12:22.776Z,24.90
2019-04-21T17:15:23.935Z,24.50
2019-04-21T17:18:13.480Z,24.20
2019-04-21T17:20:50.679Z,23.80
2019-04-21T17:23:31.499Z,23.60
2019-04-21T17:26:17.164Z,23.30
2019-04-21T17:29:04.852Z,23.20
2019-04-21T17:31:50.261Z,22.90
2019-04-21T17:34:37.099Z,22.80
2019-04-21T17:37:25.112Z,22.60
2019-04-21T17:40:09.495Z,22.50
2019-04-21T17:43:03.250Z,22.40
2019-04-21T17:45:41.397Z,22.30
2019-04-21T17:48:29.177Z,22.10
2019-04-21T17:51:17.347Z,22.00
2019-04-21T17:54:19.797Z,21.80
2019-04-21T17:57:24.442Z,21.70
2019-04-21T18:00:11.417Z,21.50
2019-04-21T18:02:53.305Z,21.30
2019-04-21T18:05:39.322Z,21.10
2019-04-21T18:08:32.567Z,21.00
2019-04-21T18:11:03.546Z,20.80
2019-04-21T18:13:41.841Z,20.60
2019-04-21T18:16:35.855Z,20.50
2019-04-21T18:19:15.073Z,20.40
2019-04-21T18:22:06.923Z,20.30
2019-04-21T18:25:03.069Z,20.20
2019-04-21T18:27:40.813Z,20.00
2019-04-21T18:30:52.410Z,19.80
2019-04-21T18:33:42.065Z,19.70
2019-04-21T18:36:39.809Z,19.60
2019-04-21T18:39:43.395Z,19.40
2019-04-21T18:42:31.684Z,19.30
2019-04-21T18:46:02.205Z,19.20
2019-04-21T18:48:28.667Z,19.00
2019-04-21T18:51:21.934Z,18.90
2019-04-21T18:54:32.086Z,18.70
2019-04-21T18:57:05.399Z,18.60
2019-04-21T18:59:45.174Z,18.40
2019-04-21T19:02:38.411Z,18.20
2019-04-21T19:05:21.192Z,18.10
2019-04-21T19:08:19.058Z,17.90
2019-04-21T19:11:23.770Z,17.70
2019-04-21T19:14:28.501Z,17.40
2019-04-21T19:17:29.099Z,17.20
2019-04-21T19:22:32.486Z,17.10
2019-04-21T19:25:31.481Z,17.00
2019-04-21T19:28:03.341Z,17.00
2019-04-21T19:31:00.885Z,16.90
2019-04-21T19:33:33.318Z,16.80
2019-04-21T19:36:08.507Z,16.80
2019-04-21T19:39:04.938Z,16.80
2019-04-21T19:41:52.122Z,16.70
2019-04-21T19:45:09.553Z,16.60
2019-04-21T19:47:56.172Z,16.60
2019-04-21T19:50:40.971Z,16.50
2019-04-21T19:53:24.269Z,16.40
2019-04-21T19:55:58.266Z,16.30
2019-04-21T19:58:47.244Z,16.20
2019-04-21T20:01:31.925Z,16.10
2019-04-21T20:04:17.108Z,16.10
2019-04-21T20:07:17.471Z,16.00
2019-04-21T20:10:14.284Z,15.90
2019-04-21T20:12:55.600Z,15.80
2019-04-21T20:15:44.735Z,15.70
2019-04-21T20:18:20.968Z,15.60
2019-04-21T20:20:58.366Z,15.40
2019-04-21T20:23:45.148Z,15.10
2019-04-21T20:26:39.090Z,15.00
2019-04-21T20:29:37.479Z,14.90
2019-04-21T20:32:38.264Z,14.70
2019-04-21T20:35:34.691Z,14.70
2019-04-21T20:37:52.535Z,14.70
2019-04-21T20:40:36.227Z,14.80
2019-04-21T20:43:38.179Z,14.80
2019-04-21T20:46:23.779Z,14.80
2019-04-21T20:48:59.986Z,14.80
2019-04-21T20:51:58.159Z,14.60
2019-04-21T20:54:37.137Z,14.60
2019-04-21T20:57:25.578Z,14.40
2019-04-21T21:00:13.657Z,14.30
2019-04-21T21:03:04.209Z,14.10
2019-04-21T21:05:42.441Z,14.10
2019-04-21T21:08:35.498Z,14.00
2019-04-21T21:11:21.525Z,13.90
2019-04-21T21:14:14.551Z,13.90
2019-04-21T21:16:57.903Z,13.80
2019-04-21T21:19:46.912Z,13.80
2019-04-21T21:22:28.995Z,13.90
2019-04-21T21:25:25.554Z,13.80
2019-04-21T21:27:57.949Z,13.80
2019-04-21T21:30:52.700Z,13.80
2019-04-21T21:33:50.816Z,13.80
2019-04-21T21:36:26.506Z,13.80
2019-04-21T21:39:15.919Z,13.80
2019-04-21T21:41:52.194Z,13.70
2019-04-21T21:44:35.821Z,13.60
2019-04-21T21:47:45.214Z,13.60
2019-04-21T21:50:23.295Z,13.60
2019-04-21T21:53:07.792Z,13.60
2019-04-21T21:55:46.930Z,13.70
2019-04-21T21:58:37.160Z,13.80
2019-04-21T22:01:21.828Z,13.90
2019-04-21T22:04:14.530Z,14.00
2019-04-21T22:06:58.465Z,14.10
2019-04-21T22:09:39.973Z,14.20
2019-04-21T22:12:26.105Z,14.20
2019-04-21T22:15:18.592Z,14.30
2019-04-21T22:18:16.810Z,14.40
2019-04-21T22:21:04.901Z,14.50
2019-04-21T22:23:44.869Z,14.60
2019-04-21T22:26:23.185Z,14.70
2019-04-21T22:29:08.095Z,14.70
2019-04-21T22:32:05.473Z,14.80
2019-04-21T22:34:48.677Z,14.90
2019-04-21T22:37:41.550Z,14.90
2019-04-21T22:40:23.798Z,14.90
2019-04-21T22:43:11.577Z,14.90
2019-04-21T22:45:47.712Z,15.00
2019-04-21T22:48:32.984Z,14.90
2019-04-21T22:51:25.393Z,15.00
2019-04-21T22:54:06.069Z,15.00
2019-04-21T22:57:02.599Z,15.00
2019-04-21T22:59:40.535Z,15.00
2019-04-21T23:02:29.569Z,15.00
2019-04-21T23:05:15.602Z,15.00
2019-04-21T23:08:03.308Z,14.90
2019-04-21T23:10:52.589Z,14.90
2019-04-21T23:13:36.267Z,14.90
2019-04-21T23:16:28.086Z,14.80
2019-04-21T23:19:23.683Z,14.70
2019-04-21T23:22:17.345Z,14.60
2019-04-21T23:25:03.444Z,14.60
2019-04-21T23:27:51.653Z,14.40
2019-04-21T23:30:47.468Z,14.40
2019-04-21T23:33:09.723Z,14.20
2019-04-21T23:35:59.098Z,14.10
2019-04-21T23:38:44.933Z,14.00
2019-04-21T23:41:36.183Z,13.90
2019-04-21T23:44:17.156Z,13.90
2019-04-21T23:47:06.565Z,13.80
2019-04-21T23:49:59.618Z,13.80
2019-04-21T23:52:37.387Z,13.70
2019-04-21T23:55:23.228Z,13.60
2019-04-21T23:58:16.389Z,13.50
